Terminal Aerodrome Forecast
Issued by NWS

Home | Current Version | Previous Version | Text Only | Print | Product List | Glossary On
Versions: 1 2 3 4 5 6 7 8 9 10 11 12
000
FTUS44 KEPZ 032300
TAFDMN
TAF
KDMN 032328Z 0400/0424 29005KT P6SM SCT120
     FM040200 26007KT P6SM FEW120
     FM042000 22012G20KT P6SM SCT100=

USA.gov is the U.S. government's official web portal to all federal, state and local government web resources and services.